Caroline — WDD6402 — position and weather

sailwx.info

Track history (hours):
 
Tides and Currents Weather Stations Pressure Air Temp Water Temp Dewpoint Dewpoint Depression Visibility Wind Speed Wind Dir Waves Ship Positions

Caroline

Owner: HARBOR BREEZE CORP., RANCHO PALOS VERDES, CA. More information available from US FCC via Universal Licensing System and Coast Guard Vessel Documentation Center.

Last reported at 2018-Jun-20 02:03 UTC. Time now 2018-Jun-21 23:59 UTC.
Position N 33°46' W 118°12'.

Length 22 m.

Type: Passenger vessel. MMSI: 367172460.

Date/timePositionNaut miles runAvg speedWind from/ knotsBaromVisibWave heightAir tempDewpointWater temp
2018-Jun-20 02:03N 33°46' W 118°12'0 0.0
2018-Jun-20 02:00N 33°46' W 118°12'1 2.4
2018-Jun-20 01:30N 33°45' W 118°11'1 2.5
2018-Jun-20 01:01N 33°46' W 118°12'2 3.2
2018-Jun-20 00:30N 33°45' W 118°10'2 3.2
2018-Jun-20 00:01N 33°46' W 118°12'0 0.0
2018-Jun-19 23:31N 33°46' W 118°12'2 3.9
2018-Jun-19 23:00N 33°44' W 118°10'2 4.0
2018-Jun-19 22:31N 33°46' W 118°12'0 0.0
2018-Jun-19 22:00N 33°46' W 118°12'2 4.0
2018-Jun-19 21:29N 33°44' W 118°10'2 4.2
2018-Jun-19 21:01N 33°46' W 118°12'0 0.3
2018-Jun-19 20:30N 33°46' W 118°12'1 1.4
2018-Jun-19 20:00N 33°45' W 118°11'1 1.7
2018-Jun-19 19:30N 33°46' W 118°12'1 2.7
2018-Jun-19 19:00N 33°45' W 118°11'1 0.0
2018-Jun-18 03:05N 33°46' W 118°12'0 1.2
2018-Jun-18 03:00N 33°46' W 118°12'1 2.6
2018-Jun-18 02:30N 33°45' W 118°11'1 2.8
2018-Jun-18 02:00N 33°46' W 118°12'0 0.6
2018-Jun-18 01:30N 33°45' W 118°12'1 1.8
2018-Jun-18 01:01N 33°45' W 118°11'1 2.3
2018-Jun-18 00:30N 33°46' W 118°12'0 0.1
2018-Jun-18 00:01N 33°46' W 118°12'1 2.5
2018-Jun-17 23:30N 33°45' W 118°11'1 2.5
2018-Jun-17 23:00N 33°46' W 118°12'0 0.3
2018-Jun-17 22:30N 33°46' W 118°12'1 1.9
2018-Jun-17 22:00N 33°45' W 118°11'1 2.2
2018-Jun-17 21:30N 33°46' W 118°12'0 0.0
2018-Jun-17 21:00N 33°46' W 118°12'0 0.1
2018-Jun-17 20:30N 33°46' W 118°12'1 2.8
2018-Jun-17 20:00N 33°45' W 118°11'1 2.5
2018-Jun-17 19:30N 33°46' W 118°12'1 1.4
2018-Jun-17 19:00N 33°45' W 118°11'1 1.8
2018-Jun-17 18:30N 33°46' W 118°12'1 1.5
2018-Jun-17 18:00N 33°45' W 118°11'3 6.2
2018-Jun-17 17:30N 33°44' W 118°08'4 7.6
2018-Jun-17 17:00N 33°46' W 118°12'0 0.0
2018-Jun-17 04:51N 33°46' W 118°12'2 4.7
2018-Jun-17 04:29N 33°44' W 118°11'2 4.5
2018-Jun-17 04:00N 33°45' W 118°13'1 2.6
2018-Jun-17 03:29N 33°44' W 118°12'3 5.3
2018-Jun-17 03:00N 33°44' W 118°09'1 2.2
2018-Jun-17 02:30N 33°45' W 118°09'2 4.3
2018-Jun-17 01:59N 33°45' W 118°12'0 0.7
2018-Jun-17 01:30N 33°46' W 118°12'0 0.0
2018-Jun-17 01:00N 33°46' W 118°12'0 0.0
2018-Jun-17 00:30N 33°46' W 118°12'0 0.5
2018-Jun-17 00:00N 33°46' W 118°12'1 1.0
2018-Jun-16 23:30N 33°45' W 118°11'1 1.5
2018-Jun-16 23:00N 33°46' W 118°12'0 0.2
2018-Jun-16 22:30N 33°46' W 118°12'1 1.8
2018-Jun-16 22:00N 33°45' W 118°11'1 2.0
2018-Jun-16 21:30N 33°46' W 118°12'0 0.0
2018-Jun-16 21:00N 33°46' W 118°12'0 0.0
2018-Jun-16 20:30N 33°46' W 118°12'1 2.5
2018-Jun-16 20:00N 33°45' W 118°11'1 2.4
2018-Jun-16 19:30N 33°46' W 118°12'1 2.0
2018-Jun-16 19:00N 33°45' W 118°11'1 2.3
2018-Jun-16 18:30N 33°46' W 118°12'1 2.1
2018-Jun-16 18:00N 33°45' W 118°11'3 5.8
2018-Jun-16 17:30N 33°43' W 118°08'4 7.7
2018-Jun-16 17:00N 33°46' W 118°12'2 3.5
2018-Jun-16 16:30N 33°45' W 118°10'2 2.9
2018-Jun-16 15:59N 33°44' W 118°09'3 6.6
2018-Jun-16 15:30N 33°46' W 118°12'  
2018-Jun-14 02:07N 33°46' W 118°12'0 1.9
2018-Jun-14 02:00N 33°46' W 118°12'1 1.2
2018-Jun-14 01:30N 33°45' W 118°11'1 1.6
2018-Jun-14 01:00N 33°46' W 118°12'2 3.9
2018-Jun-14 00:30N 33°44' W 118°10'2 3.9
2018-Jun-14 00:00N 33°46' W 118°12'0 0.0
2018-Jun-13 23:30N 33°46' W 118°12'2 4.4
2018-Jun-13 23:00N 33°44' W 118°10'2 4.2
2018-Jun-13 22:29N 33°46' W 118°12'0 0.0
2018-Jun-13 22:00N 33°46' W 118°12'2 4.1
2018-Jun-13 21:30N 33°44' W 118°10'2 4.1
2018-Jun-13 21:00N 33°46' W 118°12'0 0.8
2018-Jun-13 20:30N 33°45' W 118°11'1 1.3
2018-Jun-13 20:00N 33°45' W 118°11'1 2.2
2018-Jun-13 19:30N 33°46' W 118°12'0 0.0
2018-Jun-13 19:00N 33°46' W 118°12'0 0.0
2018-Jun-13 06:37N 33°46' W 118°12'0 0.0
2018-Jun-13 06:30N 33°46' W 118°12'0 0.0
2018-Jun-13 06:00N 33°46' W 118°12'0 0.0
2018-Jun-13 05:30N 33°46' W 118°12'0 0.0
2018-Jun-13 05:00N 33°46' W 118°12'0 0.0
2018-Jun-13 04:30N 33°46' W 118°12'2 3.6
2018-Jun-13 04:00N 33°45' W 118°10'1 2.3
2018-Jun-13 03:30N 33°44' W 118°11'0 0.2
2018-Jun-13 03:00N 33°45' W 118°11'1 2.8
2018-Jun-13 02:30N 33°46' W 118°12'0 0.0
2018-Jun-13 01:59N 33°46' W 118°12'0 0.0
2018-Jun-13 01:30N 33°46' W 118°12'0 0.0
2018-Jun-13 01:00N 33°46' W 118°12'0 0.0
2018-Jun-13 00:30N 33°46' W 118°12'0 0.0
2018-Jun-12 23:57N 33°46' W 118°12'0 0.0
2018-Jun-12 23:30N 33°46' W 118°12'0 0.0
2018-Jun-12 23:00N 33°46' W 118°12'0 0.0
2018-Jun-12 22:30N 33°46' W 118°12'0 0.0
2018-Jun-12 22:00N 33°46' W 118°12'0 0.0
2018-Jun-12 21:30N 33°46' W 118°12'0 0.0
2018-Jun-12 21:00N 33°46' W 118°12'0 0.0
2018-Jun-12 20:30N 33°46' W 118°12'0 0.0
2018-Jun-12 20:00N 33°46' W 118°12'0 0.0
2018-Jun-12 19:30N 33°46' W 118°12'0 0.0
2018-Jun-12 19:01N 33°46' W 118°12'0 0.0
2018-Jun-12 18:30N 33°46' W 118°12'0 0.0
2018-Jun-12 18:00N 33°46' W 118°12'0 0.0
2018-Jun-12 17:31N 33°46' W 118°12'0 0.0
2018-Jun-12 17:00N 33°46' W 118°12'0 0.0
2018-Jun-12 16:30N 33°46' W 118°12'3 5.2
2018-Jun-12 16:00N 33°43' W 118°13'3 5.8
2018-Jun-12 15:30N 33°44' W 118°17'1 2.9
2018-Jun-12 15:00N 33°43' W 118°15'4 7.9
2018-Jun-12 14:30N 33°45' W 118°11'1 0.0
2018-Jun-11 03:07N 33°46' W 118°12'0 0.0
2018-Jun-11 03:00N 33°46' W 118°12'1 2.8
2018-Jun-11 02:30N 33°45' W 118°11'1 2.8
2018-Jun-11 02:00N 33°46' W 118°12'0 0.0
2018-Jun-11 01:30N 33°46' W 118°12'1 2.6
2018-Jun-11 01:00N 33°45' W 118°11'1 2.7
2018-Jun-11 00:30N 33°46' W 118°12'0 0.7
2018-Jun-10 23:58N 33°45' W 118°11'1 1.2
2018-Jun-10 23:30N 33°45' W 118°11'1 1.8
2018-Jun-10 23:00N 33°46' W 118°12'0 0.0
2018-Jun-10 22:30N 33°46' W 118°12'1 2.4
2018-Jun-10 22:00N 33°45' W 118°11'1 2.5
2018-Jun-10 21:30N 33°46' W 118°12'0 0.1
2018-Jun-10 21:00N 33°46' W 118°12'1 2.1
2018-Jun-10 20:30N 33°45' W 118°11'1 2.2
2018-Jun-10 20:00N 33°46' W 118°12'0 0.0
2018-Jun-10 19:30N 33°46' W 118°12'1 2.4
2018-Jun-10 19:00N 33°45' W 118°11'1 2.3
2018-Jun-10 18:30N 33°46' W 118°12'0 0.2
2018-Jun-10 18:00N 33°46' W 118°12'4 7.6
2018-Jun-10 17:30N 33°43' W 118°08'3 6.9
2018-Jun-10 17:00N 33°45' W 118°11'1 0.0
2018-Jun-10 02:48N 33°46' W 118°12'0 0.0
2018-Jun-10 02:30N 33°46' W 118°12'  
Track history (hours):
 
Tides and Currents Weather Stations Pressure Air Temp Water Temp Dewpoint Dewpoint Depression Visibility Wind Speed Wind Dir Waves Ship Positions

Caroline

Owner: HARBOR BREEZE CORP., RANCHO PALOS VERDES, CA. More information available from US FCC via Universal Licensing System and Coast Guard Vessel Documentation Center.

Last reported at 2018-Jun-20 02:03 UTC. Time now 2018-Jun-21 23:59 UTC.
Position N 33°46' W 118°12'.

Length 22 m.

Type: Passenger vessel. MMSI: 367172460.

Date/timePositionNaut miles runAvg speedWind from/ knotsBaromVisibWave heightAir tempDewpointWater temp
2018-Jun-20 02:03N 33°46' W 118°12'0 0.0
2018-Jun-20 02:00N 33°46' W 118°12'1 2.4
2018-Jun-20 01:30N 33°45' W 118°11'1 2.5
2018-Jun-20 01:01N 33°46' W 118°12'2 3.2
2018-Jun-20 00:30N 33°45' W 118°10'2 3.2
2018-Jun-20 00:01N 33°46' W 118°12'0 0.0
2018-Jun-19 23:31N 33°46' W 118°12'2 3.9
2018-Jun-19 23:00N 33°44' W 118°10'2 4.0
2018-Jun-19 22:31N 33°46' W 118°12'0 0.0
2018-Jun-19 22:00N 33°46' W 118°12'2 4.0
2018-Jun-19 21:29N 33°44' W 118°10'2 4.2
2018-Jun-19 21:01N 33°46' W 118°12'0 0.3
2018-Jun-19 20:30N 33°46' W 118°12'1 1.4
2018-Jun-19 20:00N 33°45' W 118°11'1 1.7
2018-Jun-19 19:30N 33°46' W 118°12'1 2.7
2018-Jun-19 19:00N 33°45' W 118°11'1 0.0
2018-Jun-18 03:05N 33°46' W 118°12'0 1.2
2018-Jun-18 03:00N 33°46' W 118°12'1 2.6
2018-Jun-18 02:30N 33°45' W 118°11'1 2.8
2018-Jun-18 02:00N 33°46' W 118°12'0 0.6
2018-Jun-18 01:30N 33°45' W 118°12'1 1.8
2018-Jun-18 01:01N 33°45' W 118°11'1 2.3
2018-Jun-18 00:30N 33°46' W 118°12'0 0.1
2018-Jun-18 00:01N 33°46' W 118°12'1 2.5
2018-Jun-17 23:30N 33°45' W 118°11'1 2.5
2018-Jun-17 23:00N 33°46' W 118°12'0 0.3
2018-Jun-17 22:30N 33°46' W 118°12'1 1.9
2018-Jun-17 22:00N 33°45' W 118°11'1 2.2
2018-Jun-17 21:30N 33°46' W 118°12'0 0.0
2018-Jun-17 21:00N 33°46' W 118°12'0 0.1
2018-Jun-17 20:30N 33°46' W 118°12'1 2.8
2018-Jun-17 20:00N 33°45' W 118°11'1 2.5
2018-Jun-17 19:30N 33°46' W 118°12'1 1.4
2018-Jun-17 19:00N 33°45' W 118°11'1 1.8
2018-Jun-17 18:30N 33°46' W 118°12'1 1.5
2018-Jun-17 18:00N 33°45' W 118°11'3 6.2
2018-Jun-17 17:30N 33°44' W 118°08'4 7.6
2018-Jun-17 17:00N 33°46' W 118°12'0 0.0
2018-Jun-17 04:51N 33°46' W 118°12'2 4.7
2018-Jun-17 04:29N 33°44' W 118°11'2 4.5
2018-Jun-17 04:00N 33°45' W 118°13'1 2.6
2018-Jun-17 03:29N 33°44' W 118°12'3 5.3
2018-Jun-17 03:00N 33°44' W 118°09'1 2.2
2018-Jun-17 02:30N 33°45' W 118°09'2 4.3
2018-Jun-17 01:59N 33°45' W 118°12'0 0.7
2018-Jun-17 01:30N 33°46' W 118°12'0 0.0
2018-Jun-17 01:00N 33°46' W 118°12'0 0.0
2018-Jun-17 00:30N 33°46' W 118°12'0 0.5
2018-Jun-17 00:00N 33°46' W 118°12'1 1.0
2018-Jun-16 23:30N 33°45' W 118°11'1 1.5
2018-Jun-16 23:00N 33°46' W 118°12'0 0.2
2018-Jun-16 22:30N 33°46' W 118°12'1 1.8
2018-Jun-16 22:00N 33°45' W 118°11'1 2.0
2018-Jun-16 21:30N 33°46' W 118°12'0 0.0
2018-Jun-16 21:00N 33°46' W 118°12'0 0.0
2018-Jun-16 20:30N 33°46' W 118°12'1 2.5
2018-Jun-16 20:00N 33°45' W 118°11'1 2.4
2018-Jun-16 19:30N 33°46' W 118°12'1 2.0
2018-Jun-16 19:00N 33°45' W 118°11'1 2.3
2018-Jun-16 18:30N 33°46' W 118°12'1 2.1
2018-Jun-16 18:00N 33°45' W 118°11'3 5.8
2018-Jun-16 17:30N 33°43' W 118°08'4 7.7
2018-Jun-16 17:00N 33°46' W 118°12'2 3.5
2018-Jun-16 16:30N 33°45' W 118°10'2 2.9
2018-Jun-16 15:59N 33°44' W 118°09'3 6.6
2018-Jun-16 15:30N 33°46' W 118°12'  
2018-Jun-14 02:07N 33°46' W 118°12'0 1.9
2018-Jun-14 02:00N 33°46' W 118°12'1 1.2
2018-Jun-14 01:30N 33°45' W 118°11'1 1.6
2018-Jun-14 01:00N 33°46' W 118°12'2 3.9
2018-Jun-14 00:30N 33°44' W 118°10'2 3.9
2018-Jun-14 00:00N 33°46' W 118°12'0 0.0
2018-Jun-13 23:30N 33°46' W 118°12'2 4.4
2018-Jun-13 23:00N 33°44' W 118°10'2 4.2
2018-Jun-13 22:29N 33°46' W 118°12'0 0.0
2018-Jun-13 22:00N 33°46' W 118°12'2 4.1
2018-Jun-13 21:30N 33°44' W 118°10'2 4.1
2018-Jun-13 21:00N 33°46' W 118°12'0 0.8
2018-Jun-13 20:30N 33°45' W 118°11'1 1.3
2018-Jun-13 20:00N 33°45' W 118°11'1 2.2
2018-Jun-13 19:30N 33°46' W 118°12'0 0.0
2018-Jun-13 19:00N 33°46' W 118°12'0 0.0
2018-Jun-13 06:37N 33°46' W 118°12'0 0.0
2018-Jun-13 06:30N 33°46' W 118°12'0 0.0
2018-Jun-13 06:00N 33°46' W 118°12'0 0.0
2018-Jun-13 05:30N 33°46' W 118°12'0 0.0
2018-Jun-13 05:00N 33°46' W 118°12'0 0.0
2018-Jun-13 04:30N 33°46' W 118°12'2 3.6
2018-Jun-13 04:00N 33°45' W 118°10'1 2.3
2018-Jun-13 03:30N 33°44' W 118°11'0 0.2
2018-Jun-13 03:00N 33°45' W 118°11'1 2.8
2018-Jun-13 02:30N 33°46' W 118°12'0 0.0
2018-Jun-13 01:59N 33°46' W 118°12'0 0.0
2018-Jun-13 01:30N 33°46' W 118°12'0 0.0
2018-Jun-13 01:00N 33°46' W 118°12'0 0.0
2018-Jun-13 00:30N 33°46' W 118°12'0 0.0
2018-Jun-12 23:57N 33°46' W 118°12'0 0.0
2018-Jun-12 23:30N 33°46' W 118°12'0 0.0
2018-Jun-12 23:00N 33°46' W 118°12'0 0.0
2018-Jun-12 22:30N 33°46' W 118°12'0 0.0
2018-Jun-12 22:00N 33°46' W 118°12'0 0.0
2018-Jun-12 21:30N 33°46' W 118°12'0 0.0
2018-Jun-12 21:00N 33°46' W 118°12'0 0.0
2018-Jun-12 20:30N 33°46' W 118°12'0 0.0
2018-Jun-12 20:00N 33°46' W 118°12'0 0.0
2018-Jun-12 19:30N 33°46' W 118°12'0 0.0
2018-Jun-12 19:01N 33°46' W 118°12'0 0.0
2018-Jun-12 18:30N 33°46' W 118°12'0 0.0
2018-Jun-12 18:00N 33°46' W 118°12'0 0.0
2018-Jun-12 17:31N 33°46' W 118°12'0 0.0
2018-Jun-12 17:00N 33°46' W 118°12'0 0.0
2018-Jun-12 16:30N 33°46' W 118°12'3 5.2
2018-Jun-12 16:00N 33°43' W 118°13'3 5.8
2018-Jun-12 15:30N 33°44' W 118°17'1 2.9
2018-Jun-12 15:00N 33°43' W 118°15'4 7.9
2018-Jun-12 14:30N 33°45' W 118°11'1 0.0
2018-Jun-11 03:07N 33°46' W 118°12'0 0.0
2018-Jun-11 03:00N 33°46' W 118°12'1 2.8
2018-Jun-11 02:30N 33°45' W 118°11'1 2.8
2018-Jun-11 02:00N 33°46' W 118°12'0 0.0
2018-Jun-11 01:30N 33°46' W 118°12'1 2.6
2018-Jun-11 01:00N 33°45' W 118°11'1 2.7
2018-Jun-11 00:30N 33°46' W 118°12'0 0.7
2018-Jun-10 23:58N 33°45' W 118°11'1 1.2
2018-Jun-10 23:30N 33°45' W 118°11'1 1.8
2018-Jun-10 23:00N 33°46' W 118°12'0 0.0
2018-Jun-10 22:30N 33°46' W 118°12'1 2.4
2018-Jun-10 22:00N 33°45' W 118°11'1 2.5
2018-Jun-10 21:30N 33°46' W 118°12'0 0.1
2018-Jun-10 21:00N 33°46' W 118°12'1 2.1
2018-Jun-10 20:30N 33°45' W 118°11'1 2.2
2018-Jun-10 20:00N 33°46' W 118°12'0 0.0
2018-Jun-10 19:30N 33°46' W 118°12'1 2.4
2018-Jun-10 19:00N 33°45' W 118°11'1 2.3
2018-Jun-10 18:30N 33°46' W 118°12'0 0.2
2018-Jun-10 18:00N 33°46' W 118°12'4 7.6
2018-Jun-10 17:30N 33°43' W 118°08'3 6.9
2018-Jun-10 17:00N 33°45' W 118°11'1 0.0
2018-Jun-10 02:48N 33°46' W 118°12'0 0.0
2018-Jun-10 02:30N 33°46' W 118°12'  

Dump ship's entire track history